Time;durP1;ratioP1;P1;durP2;ratioP2;P2;SDS_P1;SDS_P2;PMS_P1;PMS_P2;Temp;Humidity;BMP_temperature;BMP_pressure;BME280_temperature;BME280_humidity;BME280_pressure;Samples;Min_cycle;Max_cycle;Signal;HPM_P1;HPM_P2
2022/05/03 00:01:49;;;;;;;6.10;5.50;;;8.90;21.20;;;;;;5025588;28;20494;-50
2022/05/03 00:04:24;;;;;;;5.20;4.80;;;9.00;22.40;;;;;;5030268;28;20490;-49
2022/05/03 00:06:57;;;;;;;5.33;4.83;;;9.00;25.20;;;;;;5027799;28;21020;-50
2022/05/03 00:09:38;;;;;;;5.57;5.00;;;9.00;21.00;;;;;;5029604;28;20467;-49
2022/05/03 00:12:09;;;;;;;7.00;5.00;;;9.00;86.80;;;;;;5029846;28;20483;-50
2022/05/03 00:14:38;;;;;;;5.23;4.43;;;9.10;24.10;;;;;;5024794;28;20526;-50
2022/05/03 00:17:05;;;;;;;5.50;5.10;;;9.10;24.80;;;;;;5027164;28;20491;-49
2022/05/03 00:19:34;;;;;;;8.53;5.40;;;9.10;28.70;;;;;;5028963;28;20500;-50
2022/05/03 00:22:01;;;;;;;7.30;5.70;;;9.00;31.90;;;;;;5027000;28;20961;-50
2022/05/03 00:24:30;;;;;;;5.10;4.67;;;9.10;40.40;;;;;;5025956;28;20955;-50
2022/05/03 00:26:56;;;;;;;8.20;4.97;;;9.00;41.60;;;;;;5024363;28;20558;-50
2022/05/03 00:29:23;;;;;;;7.00;4.77;;;9.10;31.30;;;;;;5029050;28;20502;-50
2022/05/03 00:31:50;;;;;;;6.40;5.80;;;9.10;31.10;;;;;;5023057;28;20857;-51
2022/05/03 00:34:18;;;;;;;5.00;4.53;;;9.10;39.00;;;;;;5020384;28;20510;-50
2022/05/03 00:36:44;;;;;;;8.00;6.50;;;9.10;32.80;;;;;;5024369;28;20490;-50
2022/05/03 00:39:11;;;;;;;4.87;4.47;;;9.20;34.90;;;;;;5027254;28;20493;-49
2022/05/03 00:41:43;;;;;;;6.80;4.90;;;9.20;40.00;;;;;;5023121;28;20546;-50
2022/05/03 00:47:09;;;;;;;5.33;4.50;;;9.20;34.80;;;;;;5027401;28;20682;-49
2022/05/03 00:49:45;;;;;;;6.10;5.50;;;9.20;34.10;;;;;;5024938;28;20495;-49
2022/05/03 00:52:21;;;;;;;6.93;4.70;;;9.30;42.90;;;;;;5026874;28;20466;-49
2022/05/03 00:55:07;;;;;;;8.43;4.60;;;9.30;39.20;;;;;;5022993;28;20570;-49
2022/05/03 00:57:42;;;;;;;5.83;5.37;;;9.30;40.20;;;;;;5025161;28;20557;-50
2022/05/03 01:00:10;;;;;;;5.60;5.10;;;9.20;44.90;;;;;;5021259;28;20487;-49
2022/05/03 01:02:58;;;;;;;11.00;6.60;;;9.20;41.40;;;;;;5023783;28;20513;-50
2022/05/03 01:05:27;;;;;;;5.73;5.13;;;9.20;41.40;;;;;;5027195;28;20522;-49
2022/05/03 01:08:03;;;;;;;7.60;6.10;;;9.20;36.50;;;;;;5028059;28;20497;-50
2022/05/03 01:10:34;;;;;;;5.93;5.47;;;9.10;25.90;;;;;;5021016;28;20546;-50
2022/05/03 01:13:07;;;;;;;6.20;5.60;;;9.10;28.50;;;;;;5022775;28;20461;-50
2022/05/03 01:15:38;;;;;;;17.20;5.67;;;9.10;34.00;;;;;;5027002;28;20574;-49
2022/05/03 01:18:22;;;;;;;6.13;5.63;;;9.10;29.30;;;;;;5024824;28;20463;-50
2022/05/03 01:20:57;;;;;;;13.00;5.63;;;9.10;31.90;;;;;;5025007;28;20506;-50
2022/05/03 01:23:48;;;;;;;14.80;6.13;;;9.10;34.20;;;;;;5026253;28;20497;-50
2022/05/03 01:26:33;;;;;;;5.43;4.80;;;9.10;36.50;;;;;;5018762;28;20991;-51
2022/05/03 01:29:30;;;;;;;6.00;5.40;;;9.00;33.10;;;;;;5027046;28;20574;-50
2022/05/03 01:32:00;;;;;;;11.73;6.00;;;9.00;29.40;;;;;;5017968;28;20459;-51
2022/05/03 01:34:28;;;;;;;6.73;5.97;;;9.00;33.40;;;;;;5023519;28;20486;-49
2022/05/03 01:37:10;;;;;;;12.27;6.37;;;9.00;33.00;;;;;;5019748;28;20932;-50
2022/05/03 01:40:02;;;;;;;6.00;5.40;;;9.00;31.20;;;;;;5025139;28;20545;-50
2022/05/03 01:42:37;;;;;;;5.50;5.00;;;9.00;36.50;;;;;;5021301;28;20901;-51
2022/05/03 01:45:08;;;;;;;31.17;6.03;;;9.00;29.50;;;;;;5025505;28;20925;-51
2022/05/03 01:47:44;;;;;;;7.33;5.90;;;9.00;31.70;;;;;;5026195;28;20972;-51
2022/05/03 01:50:18;;;;;;;6.37;5.77;;;8.90;26.60;;;;;;5016447;28;20471;-51
2022/05/03 01:53:08;;;;;;;13.50;5.77;;;8.90;24.60;;;;;;5016371;28;20463;-50
2022/05/03 01:56:13;;;;;;;8.60;6.00;;;8.90;28.20;;;;;;5026933;28;20609;-50
2022/05/03 01:58:54;;;;;;;9.93;5.50;;;8.90;28.70;;;;;;5024185;28;20550;-49
2022/05/03 02:01:31;;;;;;;9.90;6.00;;;9.00;26.70;;;;;;5025054;28;20545;-50
2022/05/03 02:04:07;;;;;;;5.70;5.20;;;9.00;29.80;;;;;;5030095;28;20462;-51
2022/05/03 02:06:51;;;;;;;6.10;5.50;;;9.00;28.90;;;;;;5032280;28;20528;-51
2022/05/03 02:09:26;;;;;;;8.27;5.63;;;9.00;32.30;;;;;;5026951;28;20493;-50
2022/05/03 02:12:02;;;;;;;7.67;5.87;;;9.00;31.80;;;;;;5028701;28;21018;-49
2022/05/03 02:14:47;;;;;;;7.03;5.50;;;9.00;32.70;;;;;;5029068;28;20576;-49
2022/05/03 02:17:30;;;;;;;17.43;5.50;;;9.00;33.80;;;;;;5028703;28;20577;-50
2022/05/03 02:20:17;;;;;;;6.57;5.70;;;9.00;35.20;;;;;;5026821;28;20490;-50
2022/05/03 02:23:04;;;;;;;5.60;5.20;;;8.90;33.60;;;;;;5032346;28;20498;-50
2022/05/03 02:25:42;;;;;;;8.90;6.33;;;8.80;32.70;;;;;;5030489;28;20581;-49
2022/05/03 02:28:18;;;;;;;6.60;6.00;;;8.70;28.90;;;;;;5028311;28;20915;-50
2022/05/03 02:30:46;;;;;;;7.63;6.43;;;8.70;25.50;;;;;;5029139;28;20463;-50
2022/05/03 02:33:21;;;;;;;8.53;7.00;;;8.60;24.80;;;;;;5025347;28;20463;-50
2022/05/03 02:35:51;;;;;;;7.77;6.60;;;8.70;24.00;;;;;;5029719;28;20486;-50
2022/05/03 02:38:21;;;;;;;5.97;5.50;;;8.60;23.10;;;;;;5031601;28;20645;-51
2022/05/03 02:40:52;;;;;;;7.30;5.00;;;8.60;21.60;;;;;;5028903;28;20466;-50
2022/05/03 02:43:25;;;;;;;4.83;4.40;;;8.60;24.10;;;;;;5027429;28;20467;-50
2022/05/03 02:45:57;;;;;;;6.13;5.47;;;8.60;91.40;;;;;;5029941;28;20482;-51
2022/05/03 02:48:33;;;;;;;7.73;6.40;;;8.60;84.60;;;;;;5028162;28;20486;-50
2022/05/03 02:51:03;;;;;;;6.63;6.03;;;8.60;91.90;;;;;;5028483;28;20552;-50
2022/05/03 02:53:43;;;;;;;5.27;4.57;;;8.50;98.60;;;;;;5030796;28;20983;-49
2022/05/03 02:56:20;;;;;;;5.70;5.17;;;8.50;81.90;;;;;;5026294;28;20489;-50
2022/05/03 02:59:01;;;;;;;8.77;6.70;;;8.50;99.90;;;;;;5027950;28;20516;-50
2022/05/03 03:01:48;;;;;;;5.80;5.30;;;8.40;99.90;;;;;;5026296;28;20549;-50
2022/05/03 03:04:32;;;;;;;8.07;5.20;;;8.50;99.90;;;;;;5029545;28;20455;-50
2022/05/03 03:07:00;;;;;;;12.77;6.47;;;8.50;99.10;;;;;;5028374;28;20512;-49
2022/05/03 03:09:37;;;;;;;5.83;5.43;;;8.50;85.30;;;;;;5029490;28;20537;-50
2022/05/03 03:12:12;;;;;;;5.83;5.30;;;8.50;99.90;;;;;;5024541;28;21395;-50
2022/05/03 03:14:44;;;;;;;7.03;6.33;;;8.50;99.90;;;;;;5026303;28;20560;-50
2022/05/03 03:17:11;;;;;;;8.90;7.93;;;8.40;99.90;;;;;;5026910;28;20549;-50
2022/05/03 03:20:04;;;;;;;8.57;7.70;;;8.50;99.90;;;;;;5033080;28;20459;-49
2022/05/03 03:22:35;;;;;;;16.13;12.00;;;8.40;99.90;;;;;;5025972;28;20466;-51
2022/05/03 03:25:04;;;;;;;10.97;8.93;;;8.40;99.90;;;;;;5030751;28;20573;-50
2022/05/03 03:27:32;;;;;;;10.90;7.77;;;8.30;99.90;;;;;;5024129;28;20486;-49
2022/05/03 03:30:01;;;;;;;7.43;6.73;;;8.30;99.90;;;;;;5024505;28;20462;-49
2022/05/03 03:32:28;;;;;;;6.97;6.33;;;8.30;99.90;;;;;;5022860;28;22817;-49
2022/05/03 03:34:57;;;;;;;9.50;7.03;;;8.30;99.90;;;;;;5018996;28;20556;-51
2022/05/03 03:37:25;;;;;;;7.17;5.10;;;8.30;99.90;;;;;;5022461;28;20500;-51
2022/05/03 03:39:52;;;;;;;5.20;4.80;;;8.30;99.90;;;;;;5025086;28;20502;-49
2022/05/03 03:42:18;;;;;;;5.23;4.60;;;8.30;99.90;;;;;;5027284;28;20599;-50
2022/05/03 03:44:46;;;;;;;6.83;5.97;;;8.30;99.90;;;;;;5025515;28;20918;-51
2022/05/03 03:47:14;;;;;;;8.63;5.77;;;8.20;99.90;;;;;;5028392;28;20470;-49
2022/05/03 03:49:41;;;;;;;8.17;5.87;;;8.30;99.90;;;;;;5030141;28;20498;-50
2022/05/03 03:52:10;;;;;;;9.00;5.37;;;8.30;99.90;;;;;;5026348;28;20896;-50
2022/05/03 03:54:37;;;;;;;5.83;5.23;;;8.30;99.90;;;;;;5026320;28;20529;-50
2022/05/03 03:57:05;;;;;;;14.80;5.80;;;8.30;99.90;;;;;;5024515;28;20487;-49
2022/05/03 03:59:33;;;;;;;5.50;4.93;;;8.30;99.90;;;;;;5022345;28;20888;-50
2022/05/03 04:02:00;;;;;;;13.10;4.97;;;8.30;99.90;;;;;;5019839;28;20528;-50
2022/05/03 04:04:29;;;;;;;10.40;4.50;;;8.40;99.90;;;;;;5027070;28;20514;-51
2022/05/03 04:06:56;;;;;;;5.10;4.60;;;8.40;99.90;;;;;;5028515;28;20498;-50
2022/05/03 04:09:24;;;;;;;5.80;5.20;;;8.40;99.90;;;;;;5031136;28;20523;-50
2022/05/03 04:11:50;;;;;;;7.95;4.78;;;8.40;99.90;;;;;;5026051;28;20507;-50
2022/05/03 04:14:17;;;;;;;5.43;4.60;;;8.40;99.90;;;;;;5026263;28;20286;-50
2022/05/03 04:16:45;;;;;;;9.90;5.50;;;8.40;99.90;;;;;;5027757;28;20575;-49
2022/05/03 04:19:12;;;;;;;5.30;4.90;;;8.50;99.90;;;;;;5024545;28;20512;-49
2022/05/03 04:21:39;;;;;;;5.17;4.77;;;8.50;99.90;;;;;;5023439;28;20589;-51
2022/05/03 04:24:07;;;;;;;7.43;4.50;;;8.50;99.90;;;;;;5023299;28;20490;-50
2022/05/03 04:26:35;;;;;;;6.33;5.80;;;8.50;99.90;;;;;;5027108;28;20478;-50
2022/05/03 04:29:03;;;;;;;7.20;4.77;;;8.60;99.90;;;;;;5020922;28;20549;-50
2022/05/03 04:31:32;;;;;;;7.57;6.27;;;8.60;99.90;;;;;;5027162;28;20490;-50
2022/05/03 04:34:00;;;;;;;8.13;4.90;;;8.70;99.90;;;;;;5025920;28;20517;-51
2022/05/03 04:36:27;;;;;;;9.13;5.00;;;8.80;99.90;;;;;;5027322;28;21008;-49
2022/05/03 04:38:54;;;;;;;7.20;5.27;;;8.90;99.90;;;;;;5026575;28;20467;-49
2022/05/03 04:41:21;;;;;;;13.93;6.17;;;9.00;99.90;;;;;;5024219;28;21559;-49
2022/05/03 04:43:50;;;;;;;13.87;4.60;;;9.00;99.90;;;;;;5023912;28;20961;-49
2022/05/03 04:46:17;;;;;;;12.17;5.00;;;9.10;99.90;;;;;;5023362;28;20493;-49
2022/05/03 04:48:44;;;;;;;8.77;5.30;;;9.10;99.90;;;;;;5025546;28;20565;-50
2022/05/03 04:51:17;;;;;;;14.60;5.43;;;9.10;84.40;;;;;;5020242;28;20543;-49
2022/05/03 04:53:44;;;;;;;11.93;4.73;;;9.20;75.40;;;;;;5021606;28;20459;-49
2022/05/03 04:56:17;;;;;;;7.53;5.03;;;9.20;74.60;;;;;;5024841;28;20514;-49
2022/05/03 04:58:44;;;;;;;8.10;5.53;;;9.20;28.70;;;;;;5020852;28;20864;-49
2022/05/03 05:01:12;;;;;;;11.37;5.30;;;9.30;32.00;;;;;;5023949;28;20554;-49
2022/05/03 05:03:38;;;;;;;12.20;6.40;;;9.30;27.60;;;;;;5022508;28;20459;-50
2022/05/03 05:06:05;;;;;;;18.20;5.13;;;9.40;37.90;;;;;;5025339;28;20532;-49
2022/05/03 05:08:32;;;;;;;7.10;4.63;;;9.50;34.70;;;;;;5020480;28;20551;-49
2022/05/03 05:10:58;;;;;;;6.23;5.20;;;9.60;34.00;;;;;;5021287;28;21031;-49
2022/05/03 05:13:25;;;;;;;16.33;5.50;;;9.70;40.60;;;;;;5022276;28;20556;-49
2022/05/03 05:15:51;;;;;;;5.37;4.77;;;9.70;61.50;;;;;;5021398;28;20499;-49
2022/05/03 05:18:19;;;;;;;13.43;4.80;;;9.80;54.10;;;;;;5022688;28;21033;-49
2022/05/03 05:20:46;;;;;;;6.10;4.77;;;9.80;43.50;;;;;;5022960;28;20512;-49
2022/05/03 05:23:13;;;;;;;10.47;4.53;;;9.80;53.50;;;;;;5023290;28;20455;-49
2022/05/03 05:25:39;;;;;;;10.20;4.67;;;9.80;52.20;;;;;;5026863;28;20512;-50
2022/05/03 05:28:06;;;;;;;9.50;4.23;;;9.90;48.40;;;;;;5024248;28;20562;-49
2022/05/03 05:30:32;;;;;;;7.93;4.80;;;10.00;46.10;;;;;;5024275;28;20554;-49
2022/05/03 05:32:59;;;;;;;9.77;4.47;;;10.10;63.40;;;;;;5025632;28;21047;-50
2022/05/03 05:35:27;;;;;;;10.70;4.30;;;10.20;67.40;;;;;;5028121;28;20573;-49
2022/05/03 05:37:54;;;;;;;8.60;4.03;;;10.30;71.00;;;;;;5024312;28;20491;-49
2022/05/03 05:40:21;;;;;;;6.90;5.13;;;10.40;78.30;;;;;;5023554;28;21066;-49
2022/05/03 05:42:49;;;;;;;12.30;5.17;;;10.40;83.60;;;;;;5017120;28;20553;-50
2022/05/03 05:45:17;;;;;;;59.27;5.50;;;10.50;86.30;;;;;;5024787;28;20569;-50
2022/05/03 05:47:44;;;;;;;12.50;4.37;;;10.70;96.20;;;;;;5024865;28;20510;-50
2022/05/03 05:50:10;;;;;;;17.43;4.77;;;10.80;99.30;;;;;;5026343;28;20522;-50
2022/05/03 05:55:19;;;;;;;4.43;3.80;;;11.00;99.90;;;;;;4999799;28;20496;-50
2022/05/03 05:57:46;;;;;;;5.53;3.00;;;11.10;99.90;;;;;;5020630;28;20957;-49
2022/05/03 06:00:13;;;;;;;6.30;3.43;;;11.20;99.90;;;;;;5019619;28;22893;-51
2022/05/03 06:02:40;;;;;;;5.73;2.63;;;11.30;99.90;;;;;;5023524;28;20937;-50
2022/05/03 06:05:07;;;;;;;4.00;2.90;;;11.30;99.90;;;;;;5021186;28;20541;-49
2022/05/03 06:07:34;;;;;;;3.10;2.90;;;11.40;99.90;;;;;;5017560;28;20467;-50
2022/05/03 06:10:02;;;;;;;3.50;3.07;;;11.30;99.90;;;;;;5022858;28;20984;-50
2022/05/03 06:12:29;;;;;;;3.00;2.90;;;11.40;99.90;;;;;;5021533;28;20470;-50
2022/05/03 06:14:55;;;;;;;31.60;4.20;;;11.50;99.90;;;;;;5020226;28;20933;-50
2022/05/03 06:17:22;;;;;;;3.33;3.03;;;11.60;99.90;;;;;;5028924;28;20573;-50
2022/05/03 06:19:48;;;;;;;7.30;2.50;;;11.60;99.90;;;;;;5026290;28;20562;-50
2022/05/03 06:22:15;;;;;;;4.83;3.77;;;11.60;99.90;;;;;;5020785;28;20557;-50
2022/05/03 06:24:45;;;;;;;9.73;2.90;;;11.80;99.90;;;;;;5022384;28;20573;-49
2022/05/03 06:27:13;;;;;;;2.97;1.90;;;11.80;99.90;;;;;;5017585;28;20454;-50
2022/05/03 06:29:41;;;;;;;6.30;2.60;;;11.90;99.90;;;;;;5020355;28;20597;-51
2022/05/03 06:32:10;;;;;;;4.60;2.33;;;12.00;99.90;;;;;;5020812;28;20465;-51
2022/05/03 06:34:36;;;;;;;13.80;2.27;;;12.30;99.90;;;;;;5025122;28;20483;-50
2022/05/03 06:37:03;;;;;;;4.40;3.00;;;12.50;99.90;;;;;;5019016;28;20566;-50
2022/05/03 06:39:30;;;;;;;2.93;1.83;;;12.70;99.90;;;;;;5018291;28;21125;-50
2022/05/03 06:41:57;;;;;;;2.13;1.70;;;12.90;99.90;;;;;;5020654;28;21039;-50
2022/05/03 06:44:25;;;;;;;3.23;2.23;;;13.20;99.90;;;;;;5022025;28;20577;-50
2022/05/03 06:46:51;;;;;;;6.00;1.83;;;13.30;99.90;;;;;;5018450;28;20554;-49
2022/05/03 06:49:18;;;;;;;2.00;1.90;;;13.40;99.90;;;;;;5028374;28;20466;-50
2022/05/03 06:51:44;;;;;;;1.63;1.50;;;13.40;99.90;;;;;;5026922;28;20566;-50
2022/05/03 06:54:11;;;;;;;2.40;1.60;;;13.70;99.90;;;;;;5022965;28;20903;-51
2022/05/03 06:56:37;;;;;;;3.03;1.60;;;13.80;1.40;;;;;;5020482;28;20574;-50
2022/05/03 06:59:04;;;;;;;6.30;2.40;;;14.20;99.90;;;;;;5026671;28;21012;-50
2022/05/03 07:01:32;;;;;;;1.50;1.40;;;14.60;99.90;;;;;;5023991;28;20979;-50
2022/05/03 07:03:59;;;;;;;1.73;1.63;;;14.00;99.90;;;;;;5030066;28;20502;-50
2022/05/03 07:06:25;;;;;;;1.87;1.77;;;14.30;99.90;;;;;;5027480;28;20592;-50
2022/05/03 07:08:52;;;;;;;2.57;1.90;;;14.40;99.90;;;;;;5017054;28;20562;-51
2022/05/03 07:11:19;;;;;;;1.80;1.70;;;14.90;99.90;;;;;;5027348;28;20490;-50
2022/05/03 07:13:45;;;;;;;1.80;1.70;;;15.30;99.90;;;;;;5025318;28;20929;-50
2022/05/03 07:16:12;;;;;;;2.13;1.93;;;15.10;99.90;;;;;;5017519;28;20578;-50
2022/05/03 07:24:09;;;;;;;5.03;1.50;;;15.00;99.90;;;;;;5021504;28;20455;-49
2022/05/03 07:26:37;;;;;;;2.17;2.07;;;15.10;99.90;;;;;;5026927;28;20490;-50
2022/05/03 07:29:04;;;;;;;8.03;2.43;;;14.80;99.90;;;;;;5029448;28;20458;-51
2022/05/03 07:31:31;;;;;;;1.97;1.60;;;14.80;99.90;;;;;;5028479;28;20546;-49
2022/05/03 07:33:59;;;;;;;5.00;1.63;;;14.90;99.90;;;;;;5026430;28;20539;-50
2022/05/03 07:36:28;;;;;;;3.23;2.00;;;14.80;99.90;;;;;;5030975;28;20570;-49
2022/05/03 07:38:55;;;;;;;1.30;1.20;;;14.80;99.90;;;;;;5028393;28;20529;-51
2022/05/03 07:41:21;;;;;;;1.67;1.57;;;14.70;99.90;;;;;;5023529;28;20894;-50
2022/05/03 07:43:48;;;;;;;1.87;1.70;;;14.80;99.90;;;;;;5015769;28;20965;-50
2022/05/03 07:46:14;;;;;;;1.33;1.33;;;14.70;99.90;;;;;;5023115;28;20566;-51
2022/05/03 07:48:41;;;;;;;2.77;1.73;;;14.90;99.90;;;;;;5029122;28;20495;-50
2022/05/03 07:51:11;;;;;;;3.53;1.77;;;14.80;99.90;;;;;;5030580;28;20512;-51
2022/05/03 07:53:38;;;;;;;2.60;2.33;;;14.90;99.90;;;;;;5020660;28;20549;-50
2022/05/03 07:56:05;;;;;;;1.97;1.80;;;14.80;99.90;;;;;;5025144;28;20583;-50
2022/05/03 07:58:31;;;;;;;3.00;2.70;;;14.80;99.90;;;;;;5031863;28;20494;-49
2022/05/03 08:00:58;;;;;;;11.30;2.00;;;15.10;99.90;;;;;;5025498;28;20553;-51
2022/05/03 08:03:24;;;;;;;16.47;1.77;;;15.20;99.90;;;;;;5028388;28;20994;-50
2022/05/03 08:05:54;;;;;;;2.40;2.20;;;15.20;99.90;;;;;;5022618;28;21016;-49
2022/05/03 08:08:22;;;;;;;6.30;2.47;;;15.50;99.90;;;;;;5023742;28;20466;-49
2022/05/03 08:10:49;;;;;;;7.87;2.40;;;15.70;99.90;;;;;;5030974;28;20898;-50
2022/05/03 08:13:15;;;;;;;9.70;2.37;;;15.70;99.90;;;;;;5026550;28;20461;-50
2022/05/03 08:15:42;;;;;;;6.40;3.47;;;16.10;99.90;;;;;;5025091;28;20570;-50
2022/05/03 08:18:09;;;;;;;2.10;2.00;;;16.40;99.90;;;;;;5015033;28;20574;-49
2022/05/03 08:20:35;;;;;;;3.17;2.50;;;16.60;99.90;;;;;;5025116;28;20490;-49
2022/05/03 08:23:02;;;;;;;5.40;2.50;;;16.30;99.90;;;;;;5023868;28;20538;-50
2022/05/03 08:25:32;;;;;;;2.40;2.30;;;16.70;99.90;;;;;;5029856;28;20480;-50
2022/05/03 08:27:58;;;;;;;2.03;1.90;;;16.40;99.90;;;;;;5016704;28;20538;-50
2022/05/03 08:30:25;;;;;;;12.40;2.33;;;16.70;99.90;;;;;;5022268;28;20467;-49
2022/05/03 08:32:51;;;;;;;7.53;2.37;;;16.90;99.90;;;;;;5028053;28;20495;-49
2022/05/03 08:35:21;;;;;;;3.70;2.30;;;16.90;99.90;;;;;;5022136;28;20483;-50
2022/05/03 08:43:29;;;;;;;2.20;2.00;;;17.90;99.90;;;;;;5028955;28;20560;-50
2022/05/03 08:45:57;;;;;;;3.50;2.10;;;18.40;99.90;;;;;;5025788;28;20545;-49
2022/05/03 08:48:30;;;;;;;6.10;2.80;;;18.30;99.90;;;;;;5026351;28;20831;-49
2022/05/03 08:50:57;;;;;;;1.90;1.80;;;18.60;99.90;;;;;;5014162;28;20514;-51
2022/05/03 08:53:23;;;;;;;8.90;2.33;;;19.60;99.90;;;;;;5029822;28;20493;-49
2022/05/03 08:55:51;;;;;;;18.43;3.03;;;19.40;99.90;;;;;;5023060;28;21011;-50
2022/05/03 08:58:19;;;;;;;2.93;2.27;;;20.10;99.90;;;;;;5018255;28;20509;-50
2022/05/03 09:00:46;;;;;;;2.20;2.03;;;20.60;99.90;;;;;;5024624;28;21335;-51
2022/05/03 09:03:14;;;;;;;2.67;2.30;;;20.00;99.90;;;;;;5027793;28;20504;-50
2022/05/03 09:05:42;;;;;;;3.10;2.67;;;20.50;99.90;;;;;;5024082;28;20480;-50
2022/05/03 09:08:12;;;;;;;2.20;2.10;;;19.70;99.90;;;;;;5025835;28;20455;-50
2022/05/03 09:10:39;;;;;;;3.57;2.77;;;20.00;99.90;;;;;;5019713;28;20467;-50
2022/05/03 09:13:19;;;;;;;2.80;2.60;;;19.70;99.90;;;;;;5022445;28;20462;-50
2022/05/03 09:15:47;;;;;;;3.77;2.40;;;19.70;99.90;;;;;;5023981;28;20478;-51
2022/05/03 09:18:24;;;;;;;6.00;2.13;;;19.80;99.90;;;;;;5021324;28;20515;-50
2022/05/03 09:23:48;;;;;;;3.80;2.33;;;20.00;99.90;;;;;;5020959;28;20454;-50
2022/05/03 09:26:18;;;;;;;4.00;2.70;;;20.50;99.90;;;;;;5013723;28;20482;-50
2022/05/03 09:28:48;;;;;;;2.77;2.17;;;19.50;99.90;;;;;;5018011;28;20450;-51
2022/05/03 09:31:27;;;;;;;2.20;2.00;;;20.60;99.90;;;;;;5022292;28;20518;-51
2022/05/03 09:33:53;;;;;;;5.87;2.50;;;21.30;99.90;;;;;;5024713;28;20460;-50
2022/05/03 09:36:20;;;;;;;3.03;1.97;;;20.40;99.90;;;;;;5019426;28;21035;-50
2022/05/03 09:38:47;;;;;;;7.00;1.60;;;20.30;99.90;;;;;;5021484;28;20501;-50
2022/05/03 09:41:15;;;;;;;11.87;1.67;;;21.10;99.90;;;;;;5017417;28;20462;-49
2022/05/03 09:44:03;;;;;;;3.00;2.40;;;21.00;99.90;;;;;;5029190;28;20451;-51
2022/05/03 09:46:29;;;;;;;7.77;2.07;;;20.70;99.90;;;;;;5015149;28;20505;-50
2022/05/03 09:48:56;;;;;;;4.67;2.00;;;20.20;99.90;;;;;;5019223;28;20502;-50
2022/05/03 09:51:23;;;;;;;1.67;1.57;;;20.40;99.90;;;;;;5029408;28;20505;-49
2022/05/03 09:53:57;;;;;;;2.10;1.50;;;20.10;99.90;;;;;;5025958;28;20520;-51
2022/05/03 09:56:26;;;;;;;3.17;2.13;;;20.70;99.90;;;;;;5017710;28;20511;-49
2022/05/03 09:58:56;;;;;;;2.03;1.30;;;21.20;99.90;;;;;;5024355;28;20495;-50
2022/05/03 10:01:24;;;;;;;1.93;1.60;;;21.50;99.90;;;;;;5035831;28;20465;-50
2022/05/03 10:03:52;;;;;;;1.57;1.10;;;20.70;99.90;;;;;;5024516;28;20493;-50
2022/05/03 10:06:20;;;;;;;1.83;1.73;;;20.90;99.90;;;;;;5025093;28;20934;-50
2022/05/03 10:08:48;;;;;;;1.57;1.47;;;20.90;99.90;;;;;;5021767;28;20536;-50
2022/05/03 10:11:16;;;;;;;8.90;1.63;;;20.40;99.90;;;;;;5015928;28;20547;-50
2022/05/03 10:13:43;;;;;;;1.70;1.30;;;20.70;99.90;;;;;;5021052;28;21020;-50
2022/05/03 10:21:50;;;;;;;0.90;0.90;;;20.40;99.90;;;;;;5020565;28;20454;-50
2022/05/03 10:24:16;;;;;;;1.50;1.27;;;21.00;99.90;;;;;;5018665;28;20462;-50
2022/05/03 10:27:01;;;;;;;1.80;1.50;;;20.90;99.90;;;;;;5024937;28;21027;-50
2022/05/03 10:29:29;;;;;;;4.10;1.50;;;21.40;99.90;;;;;;5016708;28;20467;-50
2022/05/03 10:31:59;;;;;;;6.13;1.50;;;21.60;99.90;;;;;;5029774;28;20459;-49
2022/05/03 10:34:53;;;;;;;1.50;1.40;;;21.30;99.90;;;;;;5032733;28;21233;-50
2022/05/03 10:37:43;;;;;;;1.33;1.23;;;21.40;99.90;;;;;;5024912;28;20482;-49
2022/05/03 10:40:12;;;;;;;1.63;1.53;;;21.00;99.90;;;;;;5021101;28;20466;-49
2022/05/03 10:42:39;;;;;;;1.83;0.90;;;21.50;99.90;;;;;;5028765;28;20995;-50
2022/05/03 10:45:08;;;;;;;1.77;1.20;;;21.60;99.90;;;;;;5021068;28;20510;-50
2022/05/03 10:47:45;;;;;;;1.47;1.37;;;21.90;99.90;;;;;;5029651;28;20546;-50
2022/05/03 10:50:31;;;;;;;1.47;0.90;;;21.30;99.90;;;;;;5027380;28;20490;-50
2022/05/03 10:53:22;;;;;;;1.93;1.20;;;22.00;99.90;;;;;;5038116;28;20478;-49
2022/05/03 10:56:05;;;;;;;4.43;1.93;;;21.60;99.90;;;;;;5020188;28;20897;-50
2022/05/03 10:58:34;;;;;;;8.63;1.17;;;21.20;99.90;;;;;;5019536;28;20515;-51
2022/05/03 11:01:05;;;;;;;1.13;1.10;;;20.50;99.90;;;;;;5031024;28;20471;-50
2022/05/03 11:03:32;;;;;;;3.00;1.03;;;20.50;99.90;;;;;;5021290;28;20550;-49
2022/05/03 11:06:49;;;;;;;1.77;0.90;;;21.30;99.90;;;;;;5031278;28;21060;-50
2022/05/03 11:09:28;;;;;;;5.70;1.93;;;21.50;99.90;;;;;;5032061;28;20969;-49
2022/05/03 11:11:57;;;;;;;4.63;1.00;;;21.20;99.90;;;;;;5023292;28;20498;-49
2022/05/03 11:14:46;;;;;;;0.97;0.97;;;21.20;99.90;;;;;;5027410;28;20517;-50
2022/05/03 11:17:12;;;;;;;5.20;0.90;;;21.60;99.90;;;;;;5023269;28;21040;-50
2022/05/03 11:19:48;;;;;;;1.63;1.00;;;21.80;99.90;;;;;;5023420;28;20491;-49
2022/05/03 11:22:17;;;;;;;1.60;1.50;;;20.80;99.90;;;;;;5029749;28;20979;-50
2022/05/03 11:24:46;;;;;;;1.50;1.20;;;20.90;99.90;;;;;;5029033;28;20899;-49
2022/05/03 11:27:15;;;;;;;5.90;1.47;;;21.80;99.90;;;;;;5024642;28;20546;-50
2022/05/03 11:29:43;;;;;;;4.20;1.20;;;21.10;99.90;;;;;;5019637;28;20510;-50
2022/05/03 11:32:11;;;;;;;0.60;0.60;;;21.20;99.90;;;;;;5019976;28;20495;-49
2022/05/03 11:34:38;;;;;;;2.97;0.60;;;20.70;99.90;;;;;;5020377;28;20573;-50
2022/05/03 11:37:07;;;;;;;2.33;0.83;;;20.70;99.90;;;;;;5023385;28;20487;-49
2022/05/03 11:39:35;;;;;;;1.17;1.00;;;20.20;99.90;;;;;;5027514;28;20458;-50
2022/05/03 11:42:05;;;;;;;7.33;0.93;;;20.20;99.90;;;;;;5026101;28;20466;-50
2022/05/03 11:44:31;;;;;;;2.97;1.50;;;20.30;99.90;;;;;;5028884;28;20570;-49
2022/05/03 11:47:03;;;;;;;6.00;1.30;;;20.40;99.90;;;;;;5028192;22;20483;-52
2022/05/03 11:49:31;;;;;;;1.77;1.30;;;19.80;99.90;;;;;;5015182;28;20460;-53
2022/05/03 11:57:35;;;;;;;3.40;1.30;;;20.90;99.90;;;;;;5008014;28;20490;-53
2022/05/03 12:00:05;;;;;;;1.23;1.20;;;20.80;99.90;;;;;;5010945;28;20471;-52
2022/05/03 12:02:33;;;;;;;2.30;1.00;;;20.80;99.90;;;;;;5006228;28;20731;-52
2022/05/03 12:05:02;;;;;;;1.30;1.30;;;20.20;99.90;;;;;;5001056;28;20552;-53
2022/05/03 12:07:28;;;;;;;1.20;1.20;;;20.50;99.90;;;;;;5001843;28;20527;-51
2022/05/03 12:09:56;;;;;;;3.70;0.97;;;20.60;99.90;;;;;;5002162;28;20552;-52
2022/05/03 12:15:20;;;;;;;0.93;0.90;;;20.50;99.90;;;;;;5008940;28;20450;-51
2022/05/03 12:17:59;;;;;;;20.43;1.60;;;20.10;99.90;;;;;;5007729;28;20953;-51
2022/05/03 12:20:28;;;;;;;1.10;1.10;;;20.40;99.90;;;;;;5003478;28;20455;-52
2022/05/03 12:23:17;;;;;;;1.27;0.80;;;20.60;99.90;;;;;;5010149;28;20488;-51
2022/05/03 12:25:45;;;;;;;2.10;1.10;;;21.70;99.90;;;;;;5004210;28;20538;-52
2022/05/03 12:28:12;;;;;;;3.07;1.17;;;22.00;99.90;;;;;;5005013;28;20509;-53
2022/05/03 12:30:40;;;;;;;6.77;1.53;;;22.60;99.90;;;;;;5007866;28;20563;-52
2022/05/03 12:33:09;;;;;;;0.83;0.83;;;22.10;99.90;;;;;;5012270;28;20818;-52
2022/05/03 12:35:37;;;;;;;2.00;1.30;;;20.70;99.90;;;;;;5010080;28;20522;-52
2022/05/03 12:38:12;;;;;;;1.50;1.40;;;20.30;99.90;;;;;;5002863;28;20586;-52
2022/05/03 12:40:45;;;;;;;1.80;1.50;;;19.40;99.90;;;;;;5010615;28;21031;-53
2022/05/03 12:43:14;;;;;;;1.73;1.63;;;18.90;99.90;;;;;;5002670;28;20459;-51
2022/05/03 12:45:42;;;;;;;14.20;2.67;;;18.50;99.90;;;;;;5004215;28;21220;-51
2022/05/03 12:48:09;;;;;;;17.60;1.93;;;18.70;99.90;;;;;;5008326;28;20483;-51
2022/05/03 12:50:36;;;;;;;4.70;1.60;;;18.60;99.90;;;;;;5009427;28;20455;-52
2022/05/03 12:53:02;;;;;;;2.33;1.30;;;18.40;99.90;;;;;;5009157;28;20577;-52
2022/05/03 12:55:29;;;;;;;2.10;1.57;;;18.30;99.90;;;;;;5005618;28;20522;-52
2022/05/03 13:00:43;;;;;;;10.57;1.70;;;18.20;99.90;;;;;;5006190;28;20438;-53
2022/05/03 13:03:10;;;;;;;20.33;1.53;;;18.50;99.90;;;;;;5000199;28;20518;-53
2022/05/03 13:05:38;;;;;;;3.57;1.50;;;18.60;99.90;;;;;;5007166;28;20466;-53
2022/05/03 13:08:05;;;;;;;1.80;1.50;;;18.50;99.90;;;;;;5009322;28;20491;-53
2022/05/03 13:10:33;;;;;;;6.13;2.13;;;18.50;99.90;;;;;;5009213;28;20455;-53
2022/05/03 13:13:01;;;;;;;2.03;1.77;;;18.60;99.90;;;;;;5007182;28;20468;-51
2022/05/03 13:15:28;;;;;;;18.10;3.30;;;18.70;99.90;;;;;;5011278;28;20459;-53
2022/05/03 13:17:56;;;;;;;4.50;1.50;;;18.30;99.90;;;;;;5007955;28;20607;-51
2022/05/03 13:20:23;;;;;;;3.43;1.70;;;18.60;99.90;;;;;;5003179;28;20463;-53
2022/05/03 13:22:49;;;;;;;7.73;1.83;;;18.80;99.90;;;;;;5003386;28;21133;-52
2022/05/03 13:25:17;;;;;;;9.53;1.50;;;18.60;99.90;;;;;;4998137;28;20498;-53
2022/05/03 13:27:43;;;;;;;3.70;1.50;;;18.70;99.90;;;;;;5005686;28;20546;-53
2022/05/03 13:30:11;;;;;;;1.30;1.30;;;18.70;99.90;;;;;;5007576;28;20554;-53
2022/05/03 13:32:38;;;;;;;2.17;1.20;;;18.80;99.90;;;;;;5007052;28;20455;-52
2022/05/03 13:35:07;;;;;;;3.53;1.67;;;18.60;99.90;;;;;;5009111;28;20838;-52
2022/05/03 13:40:30;;;;;;;1.83;1.60;;;19.30;99.90;;;;;;5007328;28;20443;-53
2022/05/03 13:42:58;;;;;;;3.87;2.07;;;20.00;99.90;;;;;;5009459;28;20466;-53
2022/05/03 13:45:26;;;;;;;7.67;1.57;;;20.20;99.90;;;;;;5004349;28;20467;-53
2022/05/03 13:47:52;;;;;;;62.10;3.30;;;20.00;99.90;;;;;;5009699;28;20588;-53